Time;durP1;ratioP1;P1;durP2;ratioP2;P2;SDS_P1;SDS_P2;PMS_P1;PMS_P2;Temp;Humidity;BMP_temperature;BMP_pressure;BME280_temperature;BME280_humidity;BME280_pressure;Samples;Min_cycle;Max_cycle;Signal;HPM_P1;HPM_P2
2021/11/30 00:00:42;;;;;;;20.60;15.02;;;;;;;;;;5073390;28;20289;-58
2021/11/30 00:03:10;;;;;;;18.73;14.68;;;;;;;;;;5073181;28;20257;-58
2021/11/30 00:05:37;;;;;;;18.77;14.70;;;;;;;;;;5073151;28;20240;-58
2021/11/30 00:08:06;;;;;;;19.27;14.48;;;;;;;;;;5073118;28;20236;-58
2021/11/30 00:10:46;;;;;;;20.35;14.27;;;;;;;;;;5073375;28;20225;-58
2021/11/30 00:13:14;;;;;;;20.20;15.52;;;;;;;;;;5073172;28;20671;-57
2021/11/30 00:15:41;;;;;;;20.67;15.20;;;;;;;;;;5073218;28;20291;-57
2021/11/30 00:18:09;;;;;;;21.75;15.57;;;;;;;;;;5073120;28;20240;-57
2021/11/30 00:20:37;;;;;;;19.50;16.33;;;;;;;;;;5073182;28;20201;-58
2021/11/30 00:23:05;;;;;;;20.23;15.18;;;;;;;;;;5072795;28;20311;-58
2021/11/30 00:25:34;;;;;;;20.08;15.95;;;;;;;;;;5076768;28;20280;-57
2021/11/30 00:28:01;;;;;;;25.02;17.65;;;;;;;;;;5076874;28;20685;-57
2021/11/30 00:30:30;;;;;;;19.92;16.25;;;;;;;;;;5077108;28;20236;-57
2021/11/30 00:32:58;;;;;;;24.40;18.02;;;;;;;;;;5076609;28;20712;-57
2021/11/30 00:35:25;;;;;;;22.13;17.70;;;;;;;;;;5077037;28;20244;-57
2021/11/30 00:37:53;;;;;;;28.45;18.73;;;;;;;;;;5076671;28;20204;-57
2021/11/30 00:40:21;;;;;;;22.50;17.95;;;;;;;;;;5077189;28;20284;-58
2021/11/30 00:42:49;;;;;;;23.42;18.23;;;;;;;;;;5076931;28;20251;-58
2021/11/30 00:45:18;;;;;;;26.65;18.45;;;;;;;;;;5076855;28;20244;-57
2021/11/30 00:47:50;;;;;;;21.15;17.77;;;;;;;;;;5076997;28;20205;-58
2021/11/30 00:50:18;;;;;;;25.10;18.88;;;;;;;;;;5076983;28;20193;-57
2021/11/30 00:52:46;;;;;;;27.95;19.52;;;;;;;;;;5076747;28;20260;-58
2021/11/30 00:55:13;;;;;;;25.65;18.48;;;;;;;;;;5076976;28;20306;-57
2021/11/30 00:57:41;;;;;;;25.80;19.30;;;;;;;;;;5076710;28;20292;-58
2021/11/30 01:00:11;;;;;;;24.05;19.35;;;;;;;;;;5076515;28;20264;-57
2021/11/30 01:02:38;;;;;;;27.25;20.15;;;;;;;;;;5076717;28;20249;-58
2021/11/30 01:05:07;;;;;;;24.30;18.98;;;;;;;;;;5076218;28;20288;-58
2021/11/30 01:07:35;;;;;;;23.95;17.25;;;;;;;;;;5076194;28;20233;-57
2021/11/30 01:10:04;;;;;;;26.50;19.48;;;;;;;;;;5076363;28;20201;-58
2021/11/30 01:12:31;;;;;;;25.13;18.75;;;;;;;;;;5076331;28;20679;-58
2021/11/30 01:14:59;;;;;;;25.90;20.15;;;;;;;;;;5076273;28;20256;-58
2021/11/30 01:17:28;;;;;;;28.40;19.55;;;;;;;;;;5076257;28;20228;-58
2021/11/30 01:19:55;;;;;;;30.15;19.65;;;;;;;;;;5076228;28;20292;-57
2021/11/30 01:22:23;;;;;;;23.92;19.52;;;;;;;;;;5077818;28;20267;-58
2021/11/30 01:24:50;;;;;;;26.42;18.77;;;;;;;;;;5076246;28;20212;-58
2021/11/30 01:27:18;;;;;;;26.73;17.73;;;;;;;;;;5075953;28;20201;-58
2021/11/30 01:29:45;;;;;;;26.17;17.50;;;;;;;;;;5076172;28;20292;-58
2021/11/30 01:32:13;;;;;;;25.90;16.65;;;;;;;;;;5075946;28;20259;-58
2021/11/30 01:34:42;;;;;;;22.40;16.55;;;;;;;;;;5076105;28;20312;-58
2021/11/30 01:37:13;;;;;;;23.45;17.30;;;;;;;;;;5075283;28;20283;-57
2021/11/30 01:39:41;;;;;;;21.17;16.90;;;;;;;;;;5075799;28;20186;-57
2021/11/30 01:42:10;;;;;;;22.02;15.75;;;;;;;;;;5075561;28;20220;-57
2021/11/30 01:44:46;;;;;;;24.70;16.20;;;;;;;;;;5075775;28;20227;-58
2021/11/30 01:47:24;;;;;;;19.88;14.98;;;;;;;;;;5075413;28;20686;-58
2021/11/30 01:49:53;;;;;;;19.45;14.27;;;;;;;;;;5075501;28;20185;-58
2021/11/30 01:52:21;;;;;;;19.33;14.50;;;;;;;;;;5075514;28;20252;-57
2021/11/30 01:54:50;;;;;;;18.30;13.40;;;;;;;;;;5075162;28;20213;-56
2021/11/30 01:57:19;;;;;;;19.38;15.02;;;;;;;;;;5075559;28;20205;-57
2021/11/30 01:59:46;;;;;;;19.08;13.73;;;;;;;;;;5075417;28;20234;-57
2021/11/30 02:02:14;;;;;;;17.52;13.68;;;;;;;;;;5075366;28;20257;-58
2021/11/30 02:04:42;;;;;;;14.70;12.60;;;;;;;;;;5075050;28;20239;-57
2021/11/30 02:07:11;;;;;;;19.65;13.43;;;;;;;;;;5075446;28;20236;-58
2021/11/30 02:09:39;;;;;;;14.75;13.02;;;;;;;;;;5074954;28;20715;-57
2021/11/30 02:12:07;;;;;;;12.68;11.25;;;;;;;;;;5075295;28;20330;-57
2021/11/30 02:14:35;;;;;;;15.20;12.10;;;;;;;;;;5074818;28;20228;-57
2021/11/30 02:17:03;;;;;;;18.25;12.88;;;;;;;;;;5075186;28;20208;-58
2021/11/30 02:19:31;;;;;;;15.90;10.18;;;;;;;;;;5075107;28;20307;-58
2021/11/30 02:21:59;;;;;;;14.48;11.40;;;;;;;;;;5074829;28;20212;-58
2021/11/30 02:24:27;;;;;;;11.70;10.05;;;;;;;;;;5074868;28;20324;-58
2021/11/30 02:26:54;;;;;;;12.32;10.90;;;;;;;;;;5075111;28;20655;-57
2021/11/30 02:29:22;;;;;;;14.50;10.75;;;;;;;;;;5074979;28;20237;-57
2021/11/30 02:31:50;;;;;;;10.93;9.75;;;;;;;;;;5075116;28;20201;-58
2021/11/30 02:34:18;;;;;;;12.68;8.73;;;;;;;;;;5074680;28;20309;-58
2021/11/30 02:36:51;;;;;;;12.13;8.80;;;;;;;;;;5075058;28;20200;-58
2021/11/30 02:39:21;;;;;;;12.95;9.52;;;;;;;;;;5074637;28;20185;-57
2021/11/30 02:41:48;;;;;;;9.48;8.48;;;;;;;;;;5074906;28;20201;-57
2021/11/30 02:44:17;;;;;;;10.30;8.20;;;;;;;;;;5075042;28;20220;-58
2021/11/30 02:46:46;;;;;;;10.30;8.07;;;;;;;;;;5074539;28;20236;-57
2021/11/30 02:49:14;;;;;;;8.63;7.72;;;;;;;;;;5073989;28;20284;-58
2021/11/30 02:51:44;;;;;;;11.15;8.90;;;;;;;;;;5074593;28;20231;-59
2021/11/30 02:54:12;;;;;;;8.80;7.90;;;;;;;;;;5074122;28;20696;-58
2021/11/30 02:56:42;;;;;;;6.43;5.82;;;;;;;;;;5074063;28;20207;-58
2021/11/30 02:59:10;;;;;;;7.95;7.25;;;;;;;;;;5074253;28;20625;-58
2021/11/30 03:01:37;;;;;;;8.00;7.20;;;;;;;;;;5074229;28;20233;-58
2021/11/30 03:04:10;;;;;;;9.57;8.57;;;;;;;;;;5073855;28;20261;-58
2021/11/30 03:06:38;;;;;;;8.15;7.35;;;;;;;;;;5074199;28;20197;-58
2021/11/30 03:09:05;;;;;;;8.55;7.22;;;;;;;;;;5074128;28;20232;-58
2021/11/30 03:11:33;;;;;;;10.48;7.70;;;;;;;;;;5074239;28;20224;-58
2021/11/30 03:14:02;;;;;;;8.45;7.65;;;;;;;;;;5073828;28;20759;-57
2021/11/30 03:16:29;;;;;;;8.43;7.63;;;;;;;;;;5073847;28;20296;-58
2021/11/30 03:18:57;;;;;;;7.80;7.10;;;;;;;;;;5073908;28;20647;-57
2021/11/30 03:21:25;;;;;;;8.27;7.50;;;;;;;;;;5073900;28;20288;-57
2021/11/30 03:23:53;;;;;;;9.60;7.70;;;;;;;;;;5073407;28;20252;-58
2021/11/30 03:26:20;;;;;;;8.43;7.47;;;;;;;;;;5073790;28;20237;-57
2021/11/30 03:28:48;;;;;;;7.90;7.20;;;;;;;;;;5073461;28;20232;-57
2021/11/30 03:31:32;;;;;;;9.05;7.35;;;;;;;;;;5073371;28;20295;-58
2021/11/30 03:34:00;;;;;;;8.13;5.75;;;;;;;;;;5073576;28;20217;-58
2021/11/30 03:36:28;;;;;;;8.57;6.88;;;;;;;;;;5073390;28;20746;-58
2021/11/30 03:38:56;;;;;;;8.65;5.75;;;;;;;;;;5073634;28;20236;-58
2021/11/30 03:41:23;;;;;;;10.40;5.60;;;;;;;;;;5073419;28;20240;-58
2021/11/30 03:43:51;;;;;;;5.80;4.55;;;;;;;;;;5073533;28;20312;-57
2021/11/30 03:46:20;;;;;;;7.43;5.00;;;;;;;;;;5073425;28;20707;-58
2021/11/30 03:48:47;;;;;;;5.57;5.07;;;;;;;;;;5073247;28;20304;-57
2021/11/30 03:51:15;;;;;;;6.13;4.90;;;;;;;;;;5073186;28;20288;-57
2021/11/30 03:53:42;;;;;;;5.50;4.95;;;;;;;;;;5073312;28;20304;-57
2021/11/30 03:56:10;;;;;;;5.95;5.35;;;;;;;;;;5074083;28;20291;-59
2021/11/30 03:58:37;;;;;;;6.05;5.45;;;;;;;;;;5073463;28;20295;-58
2021/11/30 04:01:05;;;;;;;6.03;5.45;;;;;;;;;;5073237;28;20292;-57
2021/11/30 04:03:34;;;;;;;7.43;5.28;;;;;;;;;;5072927;28;20256;-58
2021/11/30 04:08:57;;;;;;;7.68;6.97;;;;;;;;;;5111743;27;21108;-57
2021/11/30 04:11:25;;;;;;;6.80;6.10;;;;;;;;;;5111249;28;20231;-56
2021/11/30 04:13:52;;;;;;;7.53;6.90;;;;;;;;;;5110736;28;20703;-57
2021/11/30 04:16:20;;;;;;;8.35;6.80;;;;;;;;;;5111065;28;20627;-56
2021/11/30 04:18:47;;;;;;;8.50;7.60;;;;;;;;;;5111007;28;20195;-58
2021/11/30 04:21:14;;;;;;;8.30;7.50;;;;;;;;;;5104981;22;20320;-54
2021/11/30 04:23:42;;;;;;;10.75;8.95;;;;;;;;;;5050405;28;20237;-55
2021/11/30 04:26:11;;;;;;;10.25;8.75;;;;;;;;;;5050002;28;20690;-54
2021/11/30 04:28:39;;;;;;;9.10;8.27;;;;;;;;;;5050092;28;20258;-54
2021/11/30 04:31:07;;;;;;;9.77;8.50;;;;;;;;;;5050098;28;20312;-55
2021/11/30 04:33:34;;;;;;;11.80;9.90;;;;;;;;;;5050307;28;20297;-56
2021/11/30 04:36:05;;;;;;;11.52;10.32;;;;;;;;;;5049931;28;20294;-56
2021/11/30 04:38:32;;;;;;;11.48;9.07;;;;;;;;;;5050038;28;20187;-55
2021/11/30 04:41:00;;;;;;;11.32;10.18;;;;;;;;;;5049973;28;20262;-55
2021/11/30 04:43:34;;;;;;;8.63;7.82;;;;;;;;;;5049805;28;20653;-55
2021/11/30 04:46:05;;;;;;;10.77;9.00;;;;;;;;;;5049726;28;20236;-55
2021/11/30 04:48:34;;;;;;;13.70;9.00;;;;;;;;;;5049704;28;20222;-55
2021/11/30 04:51:03;;;;;;;9.07;8.18;;;;;;;;;;5049622;28;20283;-55
2021/11/30 04:53:31;;;;;;;8.15;7.35;;;;;;;;;;5049848;28;20290;-56
2021/11/30 04:55:59;;;;;;;7.53;6.82;;;;;;;;;;5049880;28;20198;-56
2021/11/30 04:58:26;;;;;;;8.85;8.10;;;;;;;;;;5049612;28;20198;-55
2021/11/30 05:00:56;;;;;;;8.55;7.50;;;;;;;;;;5050006;28;20320;-55
2021/11/30 05:03:24;;;;;;;7.43;6.78;;;;;;;;;;5051027;28;20226;-53
2021/11/30 05:05:51;;;;;;;7.43;6.72;;;;;;;;;;5049480;28;20297;-55
2021/11/30 05:08:19;;;;;;;7.55;6.45;;;;;;;;;;5049189;28;20254;-55
2021/11/30 05:10:46;;;;;;;6.90;6.20;;;;;;;;;;5049434;28;20304;-55
2021/11/30 05:13:14;;;;;;;8.68;6.20;;;;;;;;;;5049484;28;20305;-54
2021/11/30 05:15:41;;;;;;;7.30;6.70;;;;;;;;;;5049384;28;20263;-55
2021/11/30 05:18:10;;;;;;;6.57;5.97;;;;;;;;;;5048190;28;20229;-56
2021/11/30 05:20:38;;;;;;;5.93;5.43;;;;;;;;;;5035514;28;20230;-55
2021/11/30 05:23:06;;;;;;;5.80;5.20;;;;;;;;;;5035822;28;20726;-55
2021/11/30 05:25:35;;;;;;;5.07;4.65;;;;;;;;;;5035887;28;20582;-56
2021/11/30 05:28:03;;;;;;;4.97;4.57;;;;;;;;;;5035738;28;20218;-54
2021/11/30 05:30:36;;;;;;;5.20;4.70;;;;;;;;;;5035861;28;20223;-56
2021/11/30 05:33:05;;;;;;;4.70;4.30;;;;;;;;;;5037278;28;20627;-55
2021/11/30 05:35:34;;;;;;;4.60;4.20;;;;;;;;;;5038856;28;20207;-54
2021/11/30 05:38:01;;;;;;;4.22;3.92;;;;;;;;;;5038301;28;20293;-54
2021/11/30 05:40:28;;;;;;;4.05;3.72;;;;;;;;;;5036226;28;20276;-55
2021/11/30 05:42:56;;;;;;;4.40;4.00;;;;;;;;;;5035848;28;20689;-55
2021/11/30 05:45:24;;;;;;;4.63;4.18;;;;;;;;;;5035683;28;20285;-55
2021/11/30 05:47:51;;;;;;;5.13;4.05;;;;;;;;;;5035530;28;20304;-54
2021/11/30 05:50:19;;;;;;;3.97;3.65;;;;;;;;;;5035644;28;20285;-54
2021/11/30 05:52:48;;;;;;;4.38;3.97;;;;;;;;;;5035540;28;20226;-55
2021/11/30 05:55:15;;;;;;;3.50;3.20;;;;;;;;;;5035227;28;20300;-55
2021/11/30 05:57:43;;;;;;;3.70;3.40;;;;;;;;;;5035472;28;20281;-55
2021/11/30 06:00:11;;;;;;;3.85;3.50;;;;;;;;;;5036117;28;20294;-55
2021/11/30 06:02:55;;;;;;;3.65;3.45;;;;;;;;;;5035446;28;20202;-54
2021/11/30 06:05:23;;;;;;;4.05;3.70;;;;;;;;;;5035125;28;20182;-55
2021/11/30 06:07:52;;;;;;;3.60;3.30;;;;;;;;;;5035199;28;20258;-54
2021/11/30 06:10:19;;;;;;;4.72;3.30;;;;;;;;;;5035140;28;20205;-55
2021/11/30 06:12:47;;;;;;;3.83;3.53;;;;;;;;;;5035231;28;20268;-53
2021/11/30 06:15:14;;;;;;;3.60;3.30;;;;;;;;;;5035676;28;20198;-56
2021/11/30 06:17:42;;;;;;;3.70;3.40;;;;;;;;;;5034842;28;20262;-57
2021/11/30 06:20:11;;;;;;;4.10;3.80;;;;;;;;;;5034531;28;20249;-56
2021/11/30 06:22:39;;;;;;;4.03;3.72;;;;;;;;;;5035364;28;20187;-52
2021/11/30 06:25:08;;;;;;;3.08;2.88;;;;;;;;;;5034818;28;20301;-55
2021/11/30 06:27:36;;;;;;;3.50;3.20;;;;;;;;;;5034060;28;20261;-55
2021/11/30 06:30:03;;;;;;;3.88;3.55;;;;;;;;;;5033430;28;20233;-56
2021/11/30 06:32:31;;;;;;;3.90;3.60;;;;;;;;;;5034389;28;20233;-55
2021/11/30 06:34:58;;;;;;;4.55;3.83;;;;;;;;;;5034734;28;20297;-56
2021/11/30 06:37:25;;;;;;;3.75;3.45;;;;;;;;;;5034505;28;20249;-56
2021/11/30 06:39:53;;;;;;;4.28;3.70;;;;;;;;;;5034901;28;20230;-55
2021/11/30 06:42:22;;;;;;;4.28;3.88;;;;;;;;;;5034234;28;20225;-55
2021/11/30 06:44:50;;;;;;;4.00;3.70;;;;;;;;;;5034437;28;20207;-54
2021/11/30 06:47:17;;;;;;;4.32;3.67;;;;;;;;;;5034778;28;20528;-56
2021/11/30 06:49:45;;;;;;;4.30;4.00;;;;;;;;;;5034502;28;20623;-55
2021/11/30 06:52:12;;;;;;;4.40;4.10;;;;;;;;;;5033887;28;20254;-56
2021/11/30 06:54:43;;;;;;;4.20;3.90;;;;;;;;;;5034394;28;20233;-55
2021/11/30 06:57:11;;;;;;;4.65;4.25;;;;;;;;;;5034107;28;20241;-56
2021/11/30 06:59:40;;;;;;;5.82;5.25;;;;;;;;;;5033995;28;20708;-54
2021/11/30 07:02:09;;;;;;;6.22;4.75;;;;;;;;;;5033970;28;20591;-56
2021/11/30 07:04:40;;;;;;;5.65;4.32;;;;;;;;;;5033738;28;20257;-55
2021/11/30 07:07:19;;;;;;;5.18;4.78;;;;;;;;;;5033925;28;20190;-56
2021/11/30 07:09:58;;;;;;;5.00;4.60;;;;;;;;;;5033689;28;20674;-55
2021/11/30 07:12:46;;;;;;;4.47;4.13;;;;;;;;;;5033523;28;20226;-54
2021/11/30 07:15:15;;;;;;;6.15;4.70;;;;;;;;;;5033570;28;20186;-55
2021/11/30 07:17:43;;;;;;;5.00;4.55;;;;;;;;;;5033555;28;20234;-55
2021/11/30 07:20:11;;;;;;;3.97;3.60;;;;;;;;;;5033351;28;20252;-56
2021/11/30 07:22:38;;;;;;;4.20;3.90;;;;;;;;;;5033759;28;20225;-55
2021/11/30 07:25:06;;;;;;;4.18;3.78;;;;;;;;;;5033310;28;20249;-55
2021/11/30 07:27:34;;;;;;;3.60;3.30;;;;;;;;;;5034517;28;20229;-55
2021/11/30 07:30:01;;;;;;;3.58;3.25;;;;;;;;;;5038838;28;20206;-55
2021/11/30 07:32:30;;;;;;;4.32;3.92;;;;;;;;;;5038445;28;20238;-55
2021/11/30 07:34:58;;;;;;;4.55;4.15;;;;;;;;;;5034255;28;20249;-56
2021/11/30 07:37:25;;;;;;;4.32;3.92;;;;;;;;;;5034539;28;20256;-55
2021/11/30 07:39:52;;;;;;;4.97;4.57;;;;;;;;;;5034927;28;20695;-56
2021/11/30 07:42:21;;;;;;;4.50;4.10;;;;;;;;;;5033250;28;20248;-55
2021/11/30 07:44:49;;;;;;;4.50;4.10;;;;;;;;;;5035081;28;20199;-57
2021/11/30 07:47:16;;;;;;;4.53;4.13;;;;;;;;;;5035179;28;20210;-57
2021/11/30 07:49:45;;;;;;;3.92;3.63;;;;;;;;;;5034216;28;20317;-55
2021/11/30 07:52:13;;;;;;;4.93;4.53;;;;;;;;;;5034671;28;20313;-56
2021/11/30 07:54:40;;;;;;;5.43;4.97;;;;;;;;;;5033446;28;20206;-57
2021/11/30 07:57:08;;;;;;;5.05;4.55;;;;;;;;;;5034586;28;20238;-55
2021/11/30 07:59:36;;;;;;;5.80;4.93;;;;;;;;;;5033991;28;20230;-57
2021/11/30 08:02:04;;;;;;;5.82;5.00;;;;;;;;;;5035560;28;20228;-57
2021/11/30 08:04:32;;;;;;;6.45;4.82;;;;;;;;;;5038298;28;20202;-54
2021/11/30 08:07:01;;;;;;;5.22;4.72;;;;;;;;;;5039985;28;20230;-55
2021/11/30 08:09:33;;;;;;;7.35;5.30;;;;;;;;;;5037574;28;20222;-55
2021/11/30 08:12:00;;;;;;;7.22;5.35;;;;;;;;;;5037965;28;20584;-55
2021/11/30 08:14:28;;;;;;;5.55;5.15;;;;;;;;;;5037891;28;20202;-54
2021/11/30 08:16:55;;;;;;;5.60;5.03;;;;;;;;;;5034938;28;20305;-54
2021/11/30 08:19:24;;;;;;;6.05;4.38;;;;;;;;;;5034585;28;20234;-54
2021/11/30 08:21:51;;;;;;;6.13;5.53;;;;;;;;;;5037456;28;20237;-55
2021/11/30 08:24:20;;;;;;;6.47;5.47;;;;;;;;;;5037422;28;20245;-54
2021/11/30 08:26:48;;;;;;;5.55;5.03;;;;;;;;;;5035029;28;20242;-53
2021/11/30 08:29:15;;;;;;;5.75;5.22;;;;;;;;;;5033942;28;20325;-55
2021/11/30 08:31:42;;;;;;;6.05;5.45;;;;;;;;;;5035849;28;20296;-54
2021/11/30 08:34:10;;;;;;;6.60;6.00;;;;;;;;;;5032730;28;20202;-56
2021/11/30 08:36:37;;;;;;;5.88;5.35;;;;;;;;;;5032774;28;20233;-56
2021/11/30 08:39:05;;;;;;;7.30;5.85;;;;;;;;;;5033564;28;20294;-55
2021/11/30 08:41:34;;;;;;;6.53;5.90;;;;;;;;;;5032861;28;20266;-55
2021/11/30 08:44:01;;;;;;;6.50;5.90;;;;;;;;;;5032805;28;20198;-55
2021/11/30 08:46:29;;;;;;;7.35;5.00;;;;;;;;;;5033160;28;20297;-54
2021/11/30 08:48:56;;;;;;;6.68;6.05;;;;;;;;;;5033735;28;20781;-55
2021/11/30 08:51:23;;;;;;;7.95;5.20;;;;;;;;;;5041233;28;20250;-56
2021/11/30 08:53:51;;;;;;;6.53;5.93;;;;;;;;;;5039978;28;20209;-56
2021/11/30 08:56:19;;;;;;;8.38;6.30;;;;;;;;;;5040635;28;20658;-55
2021/11/30 08:58:50;;;;;;;6.68;6.00;;;;;;;;;;5036426;28;20237;-56
2021/11/30 09:01:18;;;;;;;6.13;5.53;;;;;;;;;;5037018;28;20264;-54
2021/11/30 09:03:45;;;;;;;6.45;5.60;;;;;;;;;;5036683;28;20670;-54
2021/11/30 09:06:13;;;;;;;7.53;5.80;;;;;;;;;;5036192;28;20682;-55
2021/11/30 09:08:41;;;;;;;7.35;6.25;;;;;;;;;;5036433;28;20218;-55
2021/11/30 09:11:08;;;;;;;7.80;5.60;;;;;;;;;;5036643;28;20249;-55
2021/11/30 09:13:36;;;;;;;9.27;6.05;;;;;;;;;;5036337;28;20237;-56
2021/11/30 09:16:05;;;;;;;5.68;5.13;;;;;;;;;;5036271;28;20241;-55
2021/11/30 09:18:32;;;;;;;7.38;6.63;;;;;;;;;;5036721;28;20202;-55
2021/11/30 09:21:01;;;;;;;5.25;4.75;;;;;;;;;;5036819;28;20583;-55
2021/11/30 09:23:28;;;;;;;7.32;6.57;;;;;;;;;;5036128;28;20256;-56
2021/11/30 09:25:57;;;;;;;8.68;7.80;;;;;;;;;;5036088;28;20323;-56
2021/11/30 09:28:25;;;;;;;8.43;6.70;;;;;;;;;;5036668;28;20198;-54
2021/11/30 09:30:52;;;;;;;9.65;5.97;;;;;;;;;;5036451;28;20321;-54
2021/11/30 09:33:21;;;;;;;6.68;6.03;;;;;;;;;;5036285;28;20296;-55
2021/11/30 09:35:49;;;;;;;7.70;5.72;;;;;;;;;;5036568;28;20230;-55
2021/11/30 09:38:16;;;;;;;7.07;6.38;;;;;;;;;;5036022;28;20234;-54
2021/11/30 09:40:44;;;;;;;6.68;6.00;;;;;;;;;;5036353;28;20226;-55
2021/11/30 09:43:11;;;;;;;9.32;6.35;;;;;;;;;;5036672;28;20648;-57
2021/11/30 09:45:39;;;;;;;7.20;5.80;;;;;;;;;;5036975;28;20238;-55
2021/11/30 09:48:11;;;;;;;5.50;4.88;;;;;;;;;;5036958;28;20228;-56
2021/11/30 09:50:40;;;;;;;5.10;4.03;;;;;;;;;;5036118;28;20233;-56
2021/11/30 09:53:08;;;;;;;5.18;4.50;;;;;;;;;;5036405;28;20233;-55
2021/11/30 09:55:36;;;;;;;5.95;4.18;;;;;;;;;;5035602;28;20206;-55
2021/11/30 09:58:04;;;;;;;4.45;2.95;;;;;;;;;;5035893;28;20202;-55
2021/11/30 10:00:33;;;;;;;6.47;3.45;;;;;;;;;;5035997;28;20245;-54
2021/11/30 10:03:01;;;;;;;9.18;3.80;;;;;;;;;;5035710;28;20212;-55
2021/11/30 10:05:29;;;;;;;3.10;2.55;;;;;;;;;;5035685;28;20285;-55
2021/11/30 10:08:00;;;;;;;4.45;2.80;;;;;;;;;;5035522;28;20245;-54
2021/11/30 10:10:30;;;;;;;5.55;2.95;;;;;;;;;;5036151;28;20231;-54
2021/11/30 10:13:11;;;;;;;3.05;2.40;;;;;;;;;;5040834;28;20213;-54
2021/11/30 10:15:50;;;;;;;4.10;2.38;;;;;;;;;;5041078;28;20193;-55
2021/11/30 10:18:19;;;;;;;4.05;2.13;;;;;;;;;;5040605;28;20229;-55
2021/11/30 10:23:25;;;;;;;2.28;2.00;;;;;;;;;;5092312;28;20252;-62
2021/11/30 10:25:53;;;;;;;2.72;1.85;;;;;;;;;;5094411;28;20668;-61
2021/11/30 10:28:23;;;;;;;4.13;2.00;;;;;;;;;;5094909;28;20259;-61
2021/11/30 10:30:54;;;;;;;3.22;2.15;;;;;;;;;;5095186;28;20295;-62
2021/11/30 10:33:22;;;;;;;7.00;2.50;;;;;;;;;;5095454;28;20239;-60
2021/11/30 10:35:53;;;;;;;3.80;2.10;;;;;;;;;;5094556;28;20290;-61
2021/11/30 10:38:22;;;;;;;4.22;1.90;;;;;;;;;;5094700;28;20196;-62
2021/11/30 10:40:51;;;;;;;3.40;1.70;;;;;;;;;;5094581;28;20199;-62
2021/11/30 10:43:18;;;;;;;7.00;2.20;;;;;;;;;;5094595;28;20308;-62
2021/11/30 10:45:46;;;;;;;4.63;1.60;;;;;;;;;;5094604;28;20296;-62
2021/11/30 10:48:15;;;;;;;7.35;1.73;;;;;;;;;;5094162;28;20232;-62
2021/11/30 10:50:43;;;;;;;8.00;2.22;;;;;;;;;;5093986;28;20224;-61
2021/11/30 10:53:21;;;;;;;6.28;2.30;;;;;;;;;;5095010;28;20275;-62
2021/11/30 10:55:49;;;;;;;12.18;2.28;;;;;;;;;;5094231;28;20291;-63
2021/11/30 10:58:20;;;;;;;10.82;2.35;;;;;;;;;;5094420;28;20245;-62
2021/11/30 11:00:48;;;;;;;8.15;2.63;;;;;;;;;;5094762;28;20199;-63
2021/11/30 11:03:18;;;;;;;8.07;2.30;;;;;;;;;;5094701;28;20652;-62
2021/11/30 11:05:47;;;;;;;7.03;2.38;;;;;;;;;;5094506;28;20580;-61
2021/11/30 11:08:16;;;;;;;19.55;2.95;;;;;;;;;;5094086;28;20300;-62
2021/11/30 11:10:44;;;;;;;6.50;2.05;;;;;;;;;;5093958;28;20251;-62
2021/11/30 11:13:20;;;;;;;10.93;3.17;;;;;;;;;;5093742;28;20361;-62
2021/11/30 11:15:48;;;;;;;8.88;2.20;;;;;;;;;;5094295;28;20242;-62
2021/11/30 11:18:29;;;;;;;8.93;2.70;;;;;;;;;;5093228;28;20236;-62
2021/11/30 11:21:10;;;;;;;6.75;2.20;;;;;;;;;;5093531;28;20209;-62
2021/11/30 11:23:42;;;;;;;9.27;2.70;;;;;;;;;;5093752;28;20283;-62
2021/11/30 11:26:24;;;;;;;7.10;2.60;;;;;;;;;;5094316;28;20189;-62
2021/11/30 11:28:53;;;;;;;7.35;2.35;;;;;;;;;;5093595;28;20184;-62
2021/11/30 11:31:22;;;;;;;8.90;2.05;;;;;;;;;;5093575;28;20315;-62
2021/11/30 11:33:50;;;;;;;16.27;2.95;;;;;;;;;;5093694;28;20199;-62
2021/11/30 11:36:17;;;;;;;11.88;3.67;;;;;;;;;;5093508;28;20239;-61
2021/11/30 11:38:45;;;;;;;5.75;1.90;;;;;;;;;;5094138;28;20357;-62
2021/11/30 11:41:13;;;;;;;14.57;2.08;;;;;;;;;;5094120;28;20311;-60
2021/11/30 11:43:42;;;;;;;11.43;2.38;;;;;;;;;;5093663;28;20196;-62
2021/11/30 11:46:12;;;;;;;10.90;3.35;;;;;;;;;;5093978;28;20733;-62
2021/11/30 11:48:40;;;;;;;8.93;2.58;;;;;;;;;;5093507;28;20311;-62
2021/11/30 11:51:09;;;;;;;9.50;2.40;;;;;;;;;;5093183;28;20696;-62
2021/11/30 11:53:37;;;;;;;8.13;2.00;;;;;;;;;;5093385;28;20232;-62
2021/11/30 11:56:21;;;;;;;14.05;2.50;;;;;;;;;;5093123;28;20295;-61
2021/11/30 11:58:50;;;;;;;8.95;2.90;;;;;;;;;;5093048;28;20188;-62
2021/11/30 12:01:21;;;;;;;9.38;3.00;;;;;;;;;;5093666;28;20310;-60
2021/11/30 12:03:53;;;;;;;7.43;2.85;;;;;;;;;;5094351;28;20515;-62
2021/11/30 12:06:22;;;;;;;10.48;2.67;;;;;;;;;;5093338;28;20204;-63
2021/11/30 12:09:09;;;;;;;8.98;2.50;;;;;;;;;;5093285;28;20253;-63
2021/11/30 12:11:37;;;;;;;13.32;3.55;;;;;;;;;;5092821;28;20262;-62
2021/11/30 12:14:11;;;;;;;8.20;2.95;;;;;;;;;;5092747;28;20312;-63
2021/11/30 12:16:57;;;;;;;6.93;2.65;;;;;;;;;;5092982;28;20231;-63
2021/11/30 12:19:27;;;;;;;9.93;2.40;;;;;;;;;;5093083;28;20224;-63
2021/11/30 12:21:54;;;;;;;8.50;2.97;;;;;;;;;;5092363;28;20239;-63
2021/11/30 12:24:33;;;;;;;7.95;3.20;;;;;;;;;;5092592;28;20715;-60
2021/11/30 12:27:01;;;;;;;9.45;3.10;;;;;;;;;;5093007;28;20220;-62
2021/11/30 12:29:36;;;;;;;10.95;2.75;;;;;;;;;;5095717;28;20262;-63
2021/11/30 12:32:14;;;;;;;5.78;2.50;;;;;;;;;;5097198;28;20220;-61
2021/11/30 12:34:48;;;;;;;10.10;3.00;;;;;;;;;;5097142;28;20195;-62
2021/11/30 12:37:17;;;;;;;15.77;3.08;;;;;;;;;;5096968;28;20187;-63
2021/11/30 12:40:03;;;;;;;10.25;3.33;;;;;;;;;;5096786;28;20681;-63
2021/11/30 12:42:31;;;;;;;12.88;3.65;;;;;;;;;;5096346;28;20275;-63
2021/11/30 12:44:59;;;;;;;10.15;2.40;;;;;;;;;;5096709;28;20201;-61
2021/11/30 12:47:27;;;;;;;7.47;2.35;;;;;;;;;;5096204;28;20255;-62
2021/11/30 12:49:56;;;;;;;10.05;2.50;;;;;;;;;;5096642;28;20226;-62
2021/11/30 12:52:25;;;;;;;10.15;2.30;;;;;;;;;;5095895;28;20320;-60
2021/11/30 12:54:53;;;;;;;5.63;2.53;;;;;;;;;;5096270;28;20200;-61
2021/11/30 12:57:43;;;;;;;6.97;1.90;;;;;;;;;;5096248;28;20200;-60
2021/11/30 13:00:11;;;;;;;4.95;1.92;;;;;;;;;;5096145;28;20204;-57
2021/11/30 13:02:41;;;;;;;8.95;2.90;;;;;;;;;;5095989;28;20221;-61
2021/11/30 13:05:26;;;;;;;8.45;2.65;;;;;;;;;;5096358;28;20208;-61
2021/11/30 13:08:03;;;;;;;9.90;2.72;;;;;;;;;;5096220;28;20214;-62
2021/11/30 13:10:33;;;;;;;6.60;3.33;;;;;;;;;;5096420;28;20206;-60
2021/11/30 13:13:01;;;;;;;13.20;2.42;;;;;;;;;;5096008;28;20699;-63
2021/11/30 13:15:29;;;;;;;3.55;1.83;;;;;;;;;;5096224;28;20203;-61
2021/11/30 13:17:58;;;;;;;5.05;2.45;;;;;;;;;;5097198;28;20200;-62
2021/11/30 13:20:27;;;;;;;8.13;1.90;;;;;;;;;;5098041;28;20272;-62
2021/11/30 13:22:56;;;;;;;6.35;2.78;;;;;;;;;;5097147;28;20337;-61
2021/11/30 13:25:25;;;;;;;13.43;2.95;;;;;;;;;;5096853;28;20289;-62
2021/11/30 13:27:53;;;;;;;8.25;2.00;;;;;;;;;;5095799;28;20227;-61
2021/11/30 13:30:22;;;;;;;11.02;2.47;;;;;;;;;;5096508;28;20277;-61
2021/11/30 13:32:51;;;;;;;2.72;2.00;;;;;;;;;;5096542;28;20247;-62
2021/11/30 13:35:22;;;;;;;7.50;2.10;;;;;;;;;;5097177;28;20204;-62
2021/11/30 13:38:03;;;;;;;8.07;2.20;;;;;;;;;;5097207;28;20220;-62
2021/11/30 13:40:38;;;;;;;5.03;2.00;;;;;;;;;;5098132;28;20180;-62
2021/11/30 13:43:07;;;;;;;10.02;3.08;;;;;;;;;;5097786;28;20248;-62
2021/11/30 13:45:36;;;;;;;3.53;2.50;;;;;;;;;;5099332;28;20233;-62
2021/11/30 13:48:04;;;;;;;10.13;2.00;;;;;;;;;;5097960;28;20542;-61
2021/11/30 13:50:31;;;;;;;7.53;2.78;;;;;;;;;;5096604;28;20228;-60
2021/11/30 13:53:14;;;;;;;8.18;1.95;;;;;;;;;;5096269;28;20264;-60
2021/11/30 13:55:44;;;;;;;6.40;2.08;;;;;;;;;;5096259;28;20280;-62
2021/11/30 13:58:21;;;;;;;5.07;1.70;;;;;;;;;;5095787;28;20253;-63
2021/11/30 14:00:59;;;;;;;3.22;1.88;;;;;;;;;;5095511;28;20272;-62
2021/11/30 14:03:40;;;;;;;9.98;2.00;;;;;;;;;;5095777;28;20188;-62
2021/11/30 14:06:24;;;;;;;5.13;1.90;;;;;;;;;;5094760;28;20189;-62
2021/11/30 14:08:54;;;;;;;4.07;1.73;;;;;;;;;;5094909;28;20255;-61
2021/11/30 14:11:23;;;;;;;9.88;3.78;;;;;;;;;;5095079;28;20675;-60
2021/11/30 14:13:51;;;;;;;5.95;1.80;;;;;;;;;;5095202;28;20198;-61
2021/11/30 14:16:20;;;;;;;8.02;2.35;;;;;;;;;;5094436;28;20291;-62
2021/11/30 14:18:52;;;;;;;15.57;2.85;;;;;;;;;;5094753;28;20238;-62
2021/11/30 14:21:20;;;;;;;4.28;1.85;;;;;;;;;;5094609;28;20233;-63
2021/11/30 14:24:01;;;;;;;5.82;2.22;;;;;;;;;;5094593;28;20529;-62
2021/11/30 14:26:29;;;;;;;9.23;2.72;;;;;;;;;;5094960;28;20600;-60
2021/11/30 14:29:00;;;;;;;2.50;1.70;;;;;;;;;;5094311;28;20382;-62
2021/11/30 14:31:28;;;;;;;6.43;1.95;;;;;;;;;;5094526;28;20314;-62
2021/11/30 14:34:10;;;;;;;5.18;1.77;;;;;;;;;;5094488;28;20279;-62
2021/11/30 14:36:38;;;;;;;8.32;1.50;;;;;;;;;;5094027;28;20737;-62
2021/11/30 14:39:22;;;;;;;6.82;2.00;;;;;;;;;;5093972;28;20200;-60
2021/11/30 14:41:51;;;;;;;6.55;2.60;;;;;;;;;;5095609;28;20228;-62
2021/11/30 14:44:31;;;;;;;7.05;2.00;;;;;;;;;;5095053;28;20262;-62
2021/11/30 14:46:59;;;;;;;4.32;1.80;;;;;;;;;;5094637;28;20184;-62
2021/11/30 14:49:27;;;;;;;7.57;2.28;;;;;;;;;;5094161;28;20208;-63
2021/11/30 14:51:54;;;;;;;10.75;2.30;;;;;;;;;;5093213;28;20599;-62
2021/11/30 14:54:22;;;;;;;10.10;2.90;;;;;;;;;;5094181;28;20389;-59